CYZV

Sept-Îles Airport

Sept-Îles, Quebec, Canada
METAR CYZV 210500Z 05005KT 15SM FEW075 SCT250 13/11 A3011 RMK AC2CI2 SLP199
Observed Flight Rules
Aug-21 @ 05:00 UTC (19 hours ago) Visual Flight Rules
Wind Visibility Clouds
50° at 5 knots 15 miles
  • Few at 7,500' AGL
  • Scattered at 25,000' AGL
Temperatures Readings
Current 13°C / 55°F
Dewpoint 11°C / 52°F
Humidity 88%
Altimeter 30.11" Hg
Pressure 1019.9 hPa
Elevation 55
METAR CYZV 210500Z 05005KT 15SM FEW075 SCT250 13/11 A3011 RMK AC2CI2 SLP199
Observed Flight Rules
Aug-21 @ 05:00 UTC
(19 hours ago)
VFR
Wind Visibility
50° at 5 knots 15 miles
Clouds
  • Few at 7,500' AGL
  • Scattered at 25,000' AGL
Temperature Dewpoint
13°C / 55°F 11°C / 52°F
Humidity Altimeter Pressure
88% 30.11" Hg 1019.9 hPa